ADDS METAR Data INFO
IDs: Format: Raw Decoded Include TAF

Data at: 1052 UTC 20 Sep 2017

KT82 201035Z AUTO 20010G16KT 10SM OVC014 24/20 A2993 RMK AO2 T02400200
KT82 201015Z AUTO 20008KT 10SM OVC014 24/21 A2992 RMK AO2 T02440206
KT82 200955Z AUTO 19009KT 10SM OVC014 24/21 A2992 RMK AO2 T02410205
KT82 200935Z AUTO 18006KT 10SM OVC014 24/21 A2992 RMK AO2 T02380205
KT82 200915Z AUTO 18007KT 10SM OVC016 24/20 A2991 RMK AO2 T02350201
KT82 200855Z AUTO 18004KT 10SM BKN016 23/20 A2991 RMK AO2 T02300200
KT82 200835Z AUTO 17005KT 10SM CLR 23/20 A2991 RMK AO2 T02320199
KT82 200815Z AUTO 17006KT 10SM CLR 23/20 A2991 RMK AO2 T02330200
KT82 200755Z AUTO 17006KT 10SM CLR 24/20 A2991 RMK AO2 T02350200
KT82 200735Z AUTO 18006KT 10SM CLR 24/20 A2992 RMK AO2 T02360200
KT82 200715Z AUTO 17004KT 10SM CLR 24/20 A2992 RMK AO2 T02400200
KT82 200655Z AUTO 00000KT 10SM CLR 24/20 A2992 RMK AO2 T02400201
KT82 200635Z AUTO 16003KT 10SM CLR 24/20 A2992 RMK AO2 T02430200
KT82 200615Z AUTO 18005KT 10SM CLR 25/20 A2992 RMK AO2 T02450200
KT82 200555Z AUTO 17007KT 10SM CLR 25/20 A2992 RMK AO2 T02480200 10305 20248 403290224
KT82 200535Z AUTO 17007KT 10SM CLR 25/20 A2993 RMK AO2 T02520200
KT82 200515Z AUTO 17007KT 10SM CLR 25/20 A2993 RMK AO2 T02510200
KT82 200455Z AUTO 17006KT 10SM CLR 26/20 A2993 RMK AO2 T02550200
KT82 200435Z AUTO 17006KT 10SM CLR 26/20 A2992 RMK AO2 T02570200
KT82 200415Z AUTO 18006KT 10SM CLR 26/20 A2991 RMK AO2 T02600199
KT82 200355Z AUTO 18006KT 10SM CLR 26/20 A2990 RMK AO2 T02640197
KT82 200335Z AUTO 17005KT 10SM CLR 27/20 A2990 RMK AO2 T02680196
KT82 200315Z AUTO 16006KT 10SM CLR 27/20 A2989 RMK AO2 T02720195
KT82 200255Z AUTO 16006KT 130V190 10SM CLR 27/19 A2989 RMK AO2 T02720193
KT82 200235Z AUTO 16005KT 10SM CLR 28/19 A2989 RMK AO2 T02770190
KT82 200215Z AUTO 17007KT 10SM CLR 28/19 A2988 RMK AO2 T02810187
KT82 200155Z AUTO 17010KT 10SM CLR 28/18 A2989 RMK AO2 T02840178
KT82 200135Z AUTO 16003KT 10SM CLR 29/18 A2988 RMK AO2 T02860176
KT82 200115Z AUTO 17004KT 10SM CLR 29/18 A2988 RMK AO2 T02900177
KT82 200055Z AUTO 17006KT 10SM CLR 29/18 A2987 RMK AO2 T02940176
KT82 200035Z AUTO 16004KT 10SM CLR 30/18 A2987 RMK AO2 T02970177
KT82 200015Z AUTO 16006KT 10SM CLR 30/18 A2986 RMK AO2 T03030180
KT82 192355Z AUTO 16004KT 10SM CLR 31/18 A2987 RMK AO2 LTG DSNT N T03060179 10329 20301
KT82 192335Z AUTO 16004KT 10SM CLR 31/18 A2987 RMK AO2 T03070176
KT82 192315Z AUTO 17003KT 10SM CLR 31/18 A2988 RMK AO2 LTG DSNT NW T03080175
KT82 192255Z AUTO 20005KT 10SM CLR 31/18 A2988 RMK AO2 LTG DSNT N AND NW T03100176
KT82 192235Z AUTO 21008KT 10SM CLR 31/18 A2988 RMK AO2 LTG DSNT N AND NW T03070175
KT82 192215Z AUTO 19010G16KT 10SM SCT050 31/17 A2988 RMK AO2 LTG DSNT N AND NW T03100172
KT82 192155Z AUTO 18007G17KT 10SM SCT050 31/17 A2987 RMK AO2 LTG DSNT NW T03120173
KT82 192135Z AUTO 17009KT 10SM SCT050 SCT070 32/18 A2988 RMK AO2 LTG DSNT NW T03150177
KT82 192115Z AUTO 17010KT 10SM SCT070 SCT080 32/18 A2988 RMK AO2 LTG DSNT NW T03160176
KT82 192055Z AUTO 18009G18KT 10SM SCT049 SCT070 SCT080 32/18 A2988 RMK AO2 LTG DSNT N AND NW T03210178
KT82 192035Z AUTO 17012G15KT 140V200 10SM SCT049 BKN055 BKN080 32/18 A2989 RMK AO2 T03230180
KT82 192015Z AUTO 15007KT 10SM BKN047 BKN055 BKN065 32/18 A2991 RMK AO2 LTG DSNT NW T03190183
KT82 191955Z AUTO 21007G15KT 10SM BKN045 BKN055 32/18 A2992 RMK AO2 T03190181
KT82 191935Z AUTO 19012G15KT 170V230 10SM SCT045 32/19 A2993 RMK AO2 T03220185
KT82 191915Z AUTO 19009G18KT 10SM SCT043 32/18 A2994 RMK AO2 T03170183
KT82 191855Z AUTO 21009G15KT 10SM BKN041 31/18 A2995 RMK AO2 T03130184
KT82 191835Z AUTO 20011G15KT 10SM BKN039 31/19 A2996 RMK AO2 T03140187
KT82 191815Z AUTO 20011G19KT 180V240 10SM SCT037 31/19 A2997 RMK AO2 T03070190
KT82 191755Z AUTO 19011G16KT 10SM SCT035 30/19 A2997 RMK AO2 T03000191 10302 20224
KT82 191735Z AUTO 19010G16KT 10SM BKN033 BKN039 30/19 A2998 RMK AO2 T02990188
KT82 191715Z AUTO 22007G15KT 10SM BKN031 29/20 A2999 RMK AO2 T02910195
KT82 191655Z AUTO 21010KT 10SM BKN029 29/19 A3000 RMK AO2 T02850193
KT82 191635Z AUTO 20011G16KT 10SM BKN027 29/20 A3000 RMK AO2 T02890196
KT82 191615Z AUTO 21012G16KT 10SM BKN025 28/19 A3001 RMK AO2 T02780194
KT82 191555Z AUTO 21010KT 10SM BKN023 27/20 A3000 RMK AO2 T02700196
KT82 191535Z AUTO 19012G16KT 10SM OVC021 28/20 A3000 RMK AO2 T02750197
KT82 191515Z AUTO 18011KT 10SM BKN019 28/20 A3000 RMK AO2 T02750200
KT82 191455Z AUTO 20010G14KT 10SM SCT017 26/20 A3000 RMK AO2 T02610200
KT82 191435Z AUTO 20008KT 10SM OVC015 25/20 A3000 RMK AO2 T02520202
KT82 191415Z AUTO 20006KT 10SM OVC013 24/20 A3000 RMK AO2 T02410204
KT82 191355Z AUTO 21006KT 10SM OVC013 24/20 A3000 RMK AO2 T02400203
KT82 191335Z AUTO 20009KT 10SM OVC011 24/21 A2999 RMK AO2 T02370205
KT82 191315Z AUTO 19006KT 10SM BKN011 23/21 A2999 RMK AO2 T02320206
KT82 191255Z AUTO 19004KT 10SM SCT011 23/21 A2998 RMK AO2 T02270205
KT82 191235Z AUTO 19004KT 10SM CLR 22/20 A2997 RMK AO2 T02240201
KT82 191215Z AUTO 21003KT 10SM CLR 23/20 A2998 RMK AO2 T02250201
KT82 191155Z AUTO 20004KT 10SM BKN015 23/20 A2997 RMK AO2 T02260203 10241 20225
KT82 191135Z AUTO 20003KT 10SM OVC015 23/20 A2997 RMK AO2 T02250201
KT82 191115Z AUTO 21003KT 10SM BKN015 23/20 A2998 RMK AO2 T02290202
KT82 191055Z AUTO 19004KT 10SM SCT015 23/20 A2997 RMK AO2 T02270203
KT82 191035Z AUTO 17004KT 10SM BKN015 23/20 A2997 RMK AO2 T02300203
KT82 191015Z AUTO 18003KT 10SM OVC015 23/20 A2997 RMK AO2 T02280203
KT82 190955Z AUTO 19005KT 10SM OVC013 23/20 A2997 RMK AO2 T02290202
KT82 190935Z AUTO 00000KT 10SM BKN013 23/20 A2998 RMK AO2 T02270202
KT82 190915Z AUTO 20004KT 10SM SCT011 23/20 A2997 RMK AO2 T02250200
KT82 190855Z AUTO 18004KT 10SM CLR 23/20 A2997 RMK AO2 T02250200
KT82 190835Z AUTO 18007KT 10SM CLR 23/20 A2997 RMK AO2 T02270200
KT82 190815Z AUTO 00000KT 10SM CLR 23/20 A2998 RMK AO2 T02270195
KT82 190755Z AUTO 19006KT 10SM CLR 23/20 A2997 RMK AO2 T02330198
KT82 190735Z AUTO 17004KT 10SM CLR 23/20 A2997 RMK AO2 T02320200
KT82 190715Z AUTO 19004KT 10SM CLR 24/20 A2997 RMK AO2 T02360204
KT82 190655Z AUTO 00000KT 10SM CLR 24/21 A2997 RMK AO2 T02350206
KT82 190635Z AUTO 16003KT 10SM CLR 24/21 A2997 RMK AO2 T02360208
KT82 190615Z AUTO 16004KT 10SM CLR 24/21 A2997 RMK AO2 T02400209
KT82 190555Z AUTO 16003KT 10SM CLR 24/21 A2998 RMK AO2 T02410210 10316 20240 403420187
KT82 190535Z AUTO 18004KT 10SM CLR 25/21 A2998 RMK AO2 T02450209
KT82 190515Z AUTO 17004KT 10SM CLR 25/21 A2999 RMK AO2 T02470206
KT82 190455Z AUTO 16003KT 10SM CLR 25/20 A2999 RMK AO2 T02490203
KT82 190435Z AUTO 16005KT 10SM CLR 25/20 A2999 RMK AO2 T02530203
KT82 190415Z AUTO 15003KT 10SM CLR 26/20 A2999 RMK AO2 T02560202
KT82 190355Z AUTO 15003KT 10SM CLR 26/20 A2998 RMK AO2 T02600203
KT82 190335Z AUTO 15006KT 10SM CLR 27/21 A2998 RMK AO2 T02650206
KT82 190315Z AUTO 16006KT 10SM CLR 27/21 A2998 RMK AO2 T02670205
KT82 190255Z AUTO 15008KT 10SM CLR 27/20 A2997 RMK AO2 T02700203
KT82 190235Z AUTO 15006KT 10SM CLR 27/20 A2996 RMK AO2 T02740201
KT82 190215Z AUTO 14005KT 10SM CLR 28/20 A2996 RMK AO2 T02770197
KT82 190155Z AUTO 15007KT 10SM CLR 28/18 A2996 RMK AO2 T02800181
KT82 190135Z AUTO 12003KT 10SM CLR 28/16 A2995 RMK AO2 T02800161
KT82 190115Z AUTO 14003KT 10SM CLR 29/16 A2994 RMK AO2 T02860158
KT82 190055Z AUTO 00000KT 10SM CLR 30/16 A2994 RMK AO2 T02950155
KT82 190035Z AUTO 00000KT 10SM CLR 30/15 A2993 RMK AO2 T03020150
KT82 190015Z AUTO 15003KT 10SM CLR 31/15 A2993 RMK AO2 T03100147
KT82 182355Z AUTO 17004KT 10SM CLR 32/15 A2993 RMK AO2 T03170145 10342 20310
KT82 182335Z AUTO 18007KT 10SM CLR 32/14 A2993 RMK AO2 T03220141
KT82 182315Z AUTO 17008KT 10SM SCT070 33/14 A2993 RMK AO2 T03280140
KT82 182255Z AUTO 16007KT 10SM BKN070 33/14 A2993 RMK AO2 T03320139